sensor_id;sensor_type;location;lat;lon;timestamp;pressure;altitude;pressure_sealevel;temperature;humidity
45789;BME280;31492;54.856;26.318;2023-05-03T00:01:23;1028.6;;;7.6;64.8
45789;BME280;31492;54.856;26.318;2023-05-03T00:06:13;1028.6;;;7.4;65.2
45789;BME280;31492;54.856;26.318;2023-05-03T00:11:24;1028.6;;;7.3;65.4
45789;BME280;31492;54.856;26.318;2023-05-03T00:16:13;1028.7;;;7.3;65.1
45789;BME280;31492;54.856;26.318;2023-05-03T00:21:21;1028.7;;;7.2;64.9
45789;BME280;31492;54.856;26.318;2023-05-03T00:26:35;1028.8;;;7.2;64.8
45789;BME280;31492;54.856;26.318;2023-05-03T00:31:13;1028.8;;;7.1;65
45789;BME280;31492;54.856;26.318;2023-05-03T00:36:35;1028.9;;;7;65.1
45789;BME280;31492;54.856;26.318;2023-05-03T00:41:13;1028.9;;;7;65.2
45789;BME280;31492;54.856;26.318;2023-05-03T00:46:19;1028.9;;;6.9;65.4
45789;BME280;31492;54.856;26.318;2023-05-03T00:51:13;1029;;;6.9;65.3
45789;BME280;31492;54.856;26.318;2023-05-03T00:56:13;1028.9;;;6.9;65.4
45789;BME280;31492;54.856;26.318;2023-05-03T01:01:19;1029;;;6.8;65.4
45789;BME280;31492;54.856;26.318;2023-05-03T01:06:35;1028.9;;;6.9;65
45789;BME280;31492;54.856;26.318;2023-05-03T01:11:34;1029;;;6.9;65
45789;BME280;31492;54.856;26.318;2023-05-03T01:16:20;1029;;;6.8;65.1
45789;BME280;31492;54.856;26.318;2023-05-03T01:21:13;1029;;;6.7;64.9
45789;BME280;31492;54.856;26.318;2023-05-03T01:26:31;1029;;;6.7;64.7
45789;BME280;31492;54.856;26.318;2023-05-03T01:31:37;1029.1;;;6.6;64.8
45789;BME280;31492;54.856;26.318;2023-05-03T01:36:15;1029.2;;;6.5;65
45789;BME280;31492;54.856;26.318;2023-05-03T01:41:39;1029.3;;;6.4;64.8
45789;BME280;31492;54.856;26.318;2023-05-03T01:46:13;1029.4;;;6.3;64.8
45789;BME280;31492;54.856;26.318;2023-05-03T01:51:49;1029.4;;;6.1;65
45789;BME280;31492;54.856;26.318;2023-05-03T01:56:13;1029.4;;;5.9;65.1
45789;BME280;31492;54.856;26.318;2023-05-03T02:01:13;1029.5;;;5.9;64.9
45789;BME280;31492;54.856;26.318;2023-05-03T02:06:27;1029.5;;;5.8;64.7
45789;BME280;31492;54.856;26.318;2023-05-03T02:11:21;1029.5;;;5.7;64.8
45789;BME280;31492;54.856;26.318;2023-05-03T02:16:13;1029.5;;;5.6;64.9
45789;BME280;31492;54.856;26.318;2023-05-03T02:21:13;1029.5;;;5.5;65
45789;BME280;31492;54.856;26.318;2023-05-03T02:26:21;1029.6;;;5.5;64.9
45789;BME280;31492;54.856;26.318;2023-05-03T02:31:13;1029.6;;;5.4;65
45789;BME280;31492;54.856;26.318;2023-05-03T02:36:25;1029.6;;;5.3;65
45789;BME280;31492;54.856;26.318;2023-05-03T02:41:25;1029.7;;;5.3;65
45789;BME280;31492;54.856;26.318;2023-05-03T02:46:21;1029.7;;;5.1;65.1
45789;BME280;31492;54.856;26.318;2023-05-03T02:51:13;1029.8;;;5.1;64.9
45789;BME280;31492;54.856;26.318;2023-05-03T02:56:35;1029.8;;;5.1;64.8
45789;BME280;31492;54.856;26.318;2023-05-03T03:01:33;1029.8;;;5.1;64.8
45789;BME280;31492;54.856;26.318;2023-05-03T03:06:41;1029.9;;;5.1;64.8
45789;BME280;31492;54.856;26.318;2023-05-03T03:11:21;1029.9;;;5;64.9
45789;BME280;31492;54.856;26.318;2023-05-03T03:16:13;1029.9;;;4.9;65
45789;BME280;31492;54.856;26.318;2023-05-03T03:21:29;1030;;;4.9;64.9
45789;BME280;31492;54.856;26.318;2023-05-03T03:26:13;1030;;;4.9;64.8
45789;BME280;31492;54.856;26.318;2023-05-03T03:31:39;1030.1;;;5;64.9
45789;BME280;31492;54.856;26.318;2023-05-03T03:36:13;1030.1;;;5;64.7
45789;BME280;31492;54.856;26.318;2023-05-03T03:41:19;1030.2;;;5;64.8
45789;BME280;31492;54.856;26.318;2023-05-03T03:46:43;1030.2;;;5;65
45789;BME280;31492;54.856;26.318;2023-05-03T03:51:19;1030.2;;;5;65.3
45789;BME280;31492;54.856;26.318;2023-05-03T03:56:57;1030.3;;;5;65.3
45789;BME280;31492;54.856;26.318;2023-05-03T04:01:21;1030.4;;;5;65.5
45789;BME280;31492;54.856;26.318;2023-05-03T04:06:19;1030.4;;;5;65.9
45789;BME280;31492;54.856;26.318;2023-05-03T04:11:25;1030.4;;;5.1;65.9
45789;BME280;31492;54.856;26.318;2023-05-03T04:16:13;1030.5;;;5.1;66.3
45789;BME280;31492;54.856;26.318;2023-05-03T04:21:27;1030.6;;;5.2;66.4
45789;BME280;31492;54.856;26.318;2023-05-03T04:26:13;1030.6;;;5.2;66.5
45789;BME280;31492;54.856;26.318;2023-05-03T04:31:11;205.3;;;5.2;12.6
45789;BME280;31492;54.856;26.318;2023-05-03T04:36:11;205.3;;;5.5;12.5
45789;BME280;31492;54.856;26.318;2023-05-03T04:41:11;1030.7;;;5.4;66.8
45789;BME280;31492;54.856;26.318;2023-05-03T04:46:37;1030.7;;;5.4;67.2
45789;BME280;31492;54.856;26.318;2023-05-03T04:51:35;1030.7;;;5.6;67
45789;BME280;31492;54.856;26.318;2023-05-03T04:56:25;1030.7;;;5.8;66.8
45789;BME280;31492;54.856;26.318;2023-05-03T05:01:13;1030.8;;;5.9;66.7
45789;BME280;31492;54.856;26.318;2023-05-03T05:06:13;1030.8;;;6;66.5
45789;BME280;31492;54.856;26.318;2023-05-03T05:11:13;1030.9;;;6.1;65.7
45789;BME280;31492;54.856;26.318;2023-05-03T05:16:13;1030.9;;;6.3;65.5
45789;BME280;31492;54.856;26.318;2023-05-03T05:21:35;1030.9;;;6.3;65.9
45789;BME280;31492;54.856;26.318;2023-05-03T05:26:40;1031;;;6.4;65.9
45789;BME280;31492;54.856;26.318;2023-05-03T06:01:13;1031.2;;;7.3;65.6
45789;BME280;31492;54.856;26.318;2023-05-03T06:06:13;1031.2;;;7.5;65.2
45789;BME280;31492;54.856;26.318;2023-05-03T06:11:33;1031.2;;;7.7;61.1
45789;BME280;31492;54.856;26.318;2023-05-03T06:16:27;1031.2;;;8;61.6
45789;BME280;31492;54.856;26.318;2023-05-03T06:21:21;1031.2;;;8.3;60.1
45789;BME280;31492;54.856;26.318;2023-05-03T06:26:35;1031.3;;;8.8;59
45789;BME280;31492;54.856;26.318;2023-05-03T06:31:21;1031.3;;;9.1;58.3
45789;BME280;31492;54.856;26.318;2023-05-03T06:36:35;1031.4;;;9.5;58.1
45789;BME280;31492;54.856;26.318;2023-05-03T06:41:13;1031.4;;;9.9;57.5
45789;BME280;31492;54.856;26.318;2023-05-03T06:46:19;1031.4;;;10.5;56.6
45789;BME280;31492;54.856;26.318;2023-05-03T06:51:35;1031.4;;;11.2;55.3
45789;BME280;31492;54.856;26.318;2023-05-03T06:56:19;1031.4;;;12;54
45789;BME280;31492;54.856;26.318;2023-05-03T07:01:25;1031.3;;;13;52
45789;BME280;31492;54.856;26.318;2023-05-03T07:06:25;1031.3;;;13.6;50.4
45789;BME280;31492;54.856;26.318;2023-05-03T07:11:57;1031.3;;;14.3;49.2
45789;BME280;31492;54.856;26.318;2023-05-03T07:16:13;1031.3;;;14.6;45.2
45789;BME280;31492;54.856;26.318;2023-05-03T07:21:19;1031.4;;;15;45.9
45789;BME280;31492;54.856;26.318;2023-05-03T07:26:27;1031.4;;;15.8;45.4
45789;BME280;31492;54.856;26.318;2023-05-03T07:31:27;1031.4;;;16.5;43.2
45789;BME280;31492;54.856;26.318;2023-05-03T07:36:43;1031.4;;;17.2;42.3
45789;BME280;31492;54.856;26.318;2023-05-03T07:41:13;1031.3;;;17.8;41
45789;BME280;31492;54.856;26.318;2023-05-03T07:46:13;1031.3;;;18.4;39.8
45789;BME280;31492;54.856;26.318;2023-05-03T07:51:39;1031.3;;;19.1;37.8
45789;BME280;31492;54.856;26.318;2023-05-03T07:56:21;1031.3;;;19.6;36.5
45789;BME280;31492;54.856;26.318;2023-05-03T08:01:37;1031.4;;;19.8;36
45789;BME280;31492;54.856;26.318;2023-05-03T08:06:13;1031.4;;;19.6;36.3
45789;BME280;31492;54.856;26.318;2023-05-03T08:11:33;1031.4;;;20.2;35.5
45789;BME280;31492;54.856;26.318;2023-05-03T08:16:13;1031.4;;;19.9;34.3
45789;BME280;31492;54.856;26.318;2023-05-03T08:21:35;1031.4;;;19.7;33.7
45789;BME280;31492;54.856;26.318;2023-05-03T08:26:13;1031.4;;;19.8;33.4
45789;BME280;31492;54.856;26.318;2023-05-03T08:31:13;1031.4;;;20.6;33.1
45789;BME280;31492;54.856;26.318;2023-05-03T08:36:37;1031.4;;;21.5;31.1
45789;BME280;31492;54.856;26.318;2023-05-03T08:41:16;1031.4;;;21.6;28.2
45789;BME280;31492;54.856;26.318;2023-05-03T08:46:41;1031.3;;;21.6;28.9
45789;BME280;31492;54.856;26.318;2023-05-03T08:51:13;1031.4;;;20.8;29.2
45789;BME280;31492;54.856;26.318;2023-05-03T08:56:15;1031.5;;;19.5;30.7
45789;BME280;31492;54.856;26.318;2023-05-03T09:01:34;1031.5;;;18.6;32.1
45789;BME280;31492;54.856;26.318;2023-05-03T09:06:33;1031.6;;;19.2;32.7
45789;BME280;31492;54.856;26.318;2023-05-03T09:11:33;1031.5;;;19.7;31.8
45789;BME280;31492;54.856;26.318;2023-05-03T09:16:25;1031.5;;;20.3;29.9
45789;BME280;31492;54.856;26.318;2023-05-03T09:21:17;1031.4;;;21;29.5
45789;BME280;31492;54.856;26.318;2023-05-03T09:26:13;1031.4;;;21.1;29.5
45789;BME280;31492;54.856;26.318;2023-05-03T09:31:25;1031.5;;;20.3;29.9
45789;BME280;31492;54.856;26.318;2023-05-03T09:36:22;1031.5;;;19.6;30.5
45789;BME280;31492;54.856;26.318;2023-05-03T09:41:25;1031.5;;;20.1;28.8
45789;BME280;31492;54.856;26.318;2023-05-03T09:46:25;1031.5;;;20.5;28.7
45789;BME280;31492;54.856;26.318;2023-05-03T09:51:21;1031.5;;;21;27.2
45789;BME280;31492;54.856;26.318;2023-05-03T09:56:25;1031.5;;;21.3;28.1
45789;BME280;31492;54.856;26.318;2023-05-03T10:01:33;1031.5;;;21.6;26.4
45789;BME280;31492;54.856;26.318;2023-05-03T10:06:23;1031.5;;;21.8;25.9
45789;BME280;31492;54.856;26.318;2023-05-03T10:11:19;1031.4;;;21.9;26.8
45789;BME280;31492;54.856;26.318;2023-05-03T10:16:20;1031.4;;;22;26.7
45789;BME280;31492;54.856;26.318;2023-05-03T10:21:13;1031.4;;;22;26.8
45789;BME280;31492;54.856;26.318;2023-05-03T10:26:31;1031.4;;;21.9;26.3
45789;BME280;31492;54.856;26.318;2023-05-03T10:31:42;1031.4;;;22.1;26.3
45789;BME280;31492;54.856;26.318;2023-05-03T10:36:13;1031.4;;;22.6;25.1
45789;BME280;31492;54.856;26.318;2023-05-03T10:41:27;1031.4;;;22.6;24.9
45789;BME280;31492;54.856;26.318;2023-05-03T10:46:32;1031.4;;;22.1;23
45789;BME280;31492;54.856;26.318;2023-05-03T10:51:44;1031.4;;;21.4;24.4
45789;BME280;31492;54.856;26.318;2023-05-03T10:56:25;1031.4;;;21.5;25
45789;BME280;31492;54.856;26.318;2023-05-03T11:01:33;1031.4;;;22;25.3
45789;BME280;31492;54.856;26.318;2023-05-03T11:06:29;1031.4;;;22.3;24.2
45789;BME280;31492;54.856;26.318;2023-05-03T11:11:25;1031.4;;;22.1;23.1
45789;BME280;31492;54.856;26.318;2023-05-03T11:16:13;1031.4;;;21.3;24.1
45789;BME280;31492;54.856;26.318;2023-05-03T11:21:27;1031.5;;;20.7;23.8
45789;BME280;31492;54.856;26.318;2023-05-03T11:26:13;1031.5;;;20.6;24.8
45789;BME280;31492;54.856;26.318;2023-05-03T11:31:27;1031.5;;;20.3;24.5
45789;BME280;31492;54.856;26.318;2023-05-03T11:36:13;1031.5;;;20.5;24.9
45789;BME280;31492;54.856;26.318;2023-05-03T11:41:37;1031.4;;;20.9;23.8
45789;BME280;31492;54.856;26.318;2023-05-03T11:46:21;1031.4;;;21.3;23.5
45789;BME280;31492;54.856;26.318;2023-05-03T11:51:55;1031.5;;;20.3;24.1
45789;BME280;31492;54.856;26.318;2023-05-03T11:56:21;1031.4;;;19.9;25.2
45789;BME280;31492;54.856;26.318;2023-05-03T12:01:21;1031.4;;;20;25.3
45789;BME280;31492;54.856;26.318;2023-05-03T12:06:41;1031.5;;;19.5;25.6
45789;BME280;31492;54.856;26.318;2023-05-03T12:11:13;1031.5;;;19;25.6
45789;BME280;31492;54.856;26.318;2023-05-03T12:16:44;1031.5;;;18.6;26.6
45789;BME280;31492;54.856;26.318;2023-05-03T12:21:13;1031.5;;;18.2;27.5
45789;BME280;31492;54.856;26.318;2023-05-03T12:26:13;1031.5;;;17.7;28.4
45789;BME280;31492;54.856;26.318;2023-05-03T12:31:13;1031.5;;;17.8;28.8
45789;BME280;31492;54.856;26.318;2023-05-03T12:36:23;1031.5;;;17.9;29.1
45789;BME280;31492;54.856;26.318;2023-05-03T12:41:27;1031.5;;;17.8;29
45789;BME280;31492;54.856;26.318;2023-05-03T12:46:27;1031.4;;;18.1;28.9
45789;BME280;31492;54.856;26.318;2023-05-03T12:51:13;1031.4;;;19.1;27
45789;BME280;31492;54.856;26.318;2023-05-03T12:56:27;1031.4;;;19.4;26.1
45789;BME280;31492;54.856;26.318;2023-05-03T13:01:35;1031.4;;;19;26.7
45789;BME280;31492;54.856;26.318;2023-05-03T13:06:13;1031.5;;;18.7;27.3
45789;BME280;31492;54.856;26.318;2023-05-03T13:11:13;1031.5;;;18.5;28.2
45789;BME280;31492;54.856;26.318;2023-05-03T13:16:27;1031.5;;;18.2;28.8
45789;BME280;31492;54.856;26.318;2023-05-03T13:21:13;1031.5;;;17.9;29.4
45789;BME280;31492;54.856;26.318;2023-05-03T13:26:43;1031.5;;;17.6;29.4
45789;BME280;31492;54.856;26.318;2023-05-03T13:31:13;1031.5;;;17.3;30
45789;BME280;31492;54.856;26.318;2023-05-03T13:36:13;1031.5;;;17.1;29.8
45789;BME280;31492;54.856;26.318;2023-05-03T13:41:23;1031.5;;;16.8;30.8
45789;BME280;31492;54.856;26.318;2023-05-03T13:46:25;1031.5;;;16.7;30.4
45789;BME280;31492;54.856;26.318;2023-05-03T13:51:19;1031.4;;;16.6;30.1
45789;BME280;31492;54.856;26.318;2023-05-03T13:56:13;1031.4;;;16.6;30
45789;BME280;31492;54.856;26.318;2023-05-03T14:01:25;1031.3;;;16.8;29.6
45789;BME280;31492;54.856;26.318;2023-05-03T14:06:13;1031.3;;;17;29.7
45789;BME280;31492;54.856;26.318;2023-05-03T14:11:28;1031.3;;;17;29.9
45789;BME280;31492;54.856;26.318;2023-05-03T14:16:14;1031.3;;;17;31.1
45789;BME280;31492;54.856;26.318;2023-05-03T14:21:35;1031.4;;;16.9;29.6
45789;BME280;31492;54.856;26.318;2023-05-03T14:26:27;1031.4;;;16.8;28
45789;BME280;31492;54.856;26.318;2023-05-03T14:31:19;1031.4;;;16.6;27.6
45789;BME280;31492;54.856;26.318;2023-05-03T14:36:13;1031.4;;;16.5;27.7
45789;BME280;31492;54.856;26.318;2023-05-03T14:41:13;1031.5;;;16.3;28.7
45789;BME280;31492;54.856;26.318;2023-05-03T14:46:47;1031.5;;;16.2;29.3
45789;BME280;31492;54.856;26.318;2023-05-03T14:51:23;1031.6;;;16;31.1
45789;BME280;31492;54.856;26.318;2023-05-03T14:56:13;1031.6;;;15.8;32
45789;BME280;31492;54.856;26.318;2023-05-03T15:01:31;1031.6;;;15.6;31.8
45789;BME280;31492;54.856;26.318;2023-05-03T15:06:23;1031.6;;;15.5;32.4
45789;BME280;31492;54.856;26.318;2023-05-03T15:11:13;1031.6;;;15.5;32.4
45789;BME280;31492;54.856;26.318;2023-05-03T15:16:33;1031.7;;;15.5;32.8
45789;BME280;31492;54.856;26.318;2023-05-03T15:21:23;1031.7;;;15.4;31.5
45789;BME280;31492;54.856;26.318;2023-05-03T15:26:13;1031.7;;;15.3;33
45789;BME280;31492;54.856;26.318;2023-05-03T15:31:13;1031.7;;;15.3;32.8
45789;BME280;31492;54.856;26.318;2023-05-03T15:36:13;1031.7;;;15.2;32.5
45789;BME280;31492;54.856;26.318;2023-05-03T15:41:13;1031.8;;;15.1;32.9
45789;BME280;31492;54.856;26.318;2023-05-03T15:46:13;1031.8;;;14.9;33.8
45789;BME280;31492;54.856;26.318;2023-05-03T15:51:13;1031.8;;;14.9;33.5
45789;BME280;31492;54.856;26.318;2023-05-03T15:56:39;1031.8;;;14.8;33.4
45789;BME280;31492;54.856;26.318;2023-05-03T16:01:39;1031.8;;;14.8;33.5
45789;BME280;31492;54.856;26.318;2023-05-03T16:06:14;1031.8;;;14.8;33.6
45789;BME280;31492;54.856;26.318;2023-05-03T16:11:13;1031.8;;;14.8;33.5
45789;BME280;31492;54.856;26.318;2023-05-03T16:16:35;1031.8;;;14.8;33.1
45789;BME280;31492;54.856;26.318;2023-05-03T16:21:27;1031.8;;;14.7;32.5
45789;BME280;31492;54.856;26.318;2023-05-03T16:26:27;1031.7;;;14.6;33.1
45789;BME280;31492;54.856;26.318;2023-05-03T16:31:37;1031.8;;;14.4;34.1
45789;BME280;31492;54.856;26.318;2023-05-03T16:36:27;1031.8;;;14.3;33.5
45789;BME280;31492;54.856;26.318;2023-05-03T16:41:59;1031.9;;;14.1;33.3
45789;BME280;31492;54.856;26.318;2023-05-03T16:46:13;1031.9;;;13.9;33.8
45789;BME280;31492;54.856;26.318;2023-05-03T16:51:39;1031.9;;;13.8;35
45789;BME280;31492;54.856;26.318;2023-05-03T16:56:31;1032;;;13.6;35.2
45789;BME280;31492;54.856;26.318;2023-05-03T17:01:45;1032;;;13.5;35
45789;BME280;31492;54.856;26.318;2023-05-03T17:06:33;1032;;;13.3;36.1
45789;BME280;31492;54.856;26.318;2023-05-03T17:11:19;1032.1;;;13.1;37.2
45789;BME280;31492;54.856;26.318;2023-05-03T17:16:13;1032.1;;;13;35.9
45789;BME280;31492;54.856;26.318;2023-05-03T17:21:41;1032.1;;;12.9;35.4
45789;BME280;31492;54.856;26.318;2023-05-03T17:26:27;1032.2;;;12.8;35.5
45789;BME280;31492;54.856;26.318;2023-05-03T17:31:25;1032.2;;;12.6;36
45789;BME280;31492;54.856;26.318;2023-05-03T17:36:13;1032.2;;;12.3;38.3
45789;BME280;31492;54.856;26.318;2023-05-03T17:41:21;1032.2;;;12;38.6
45789;BME280;31492;54.856;26.318;2023-05-03T17:46:13;1032.2;;;11.7;38.5
45789;BME280;31492;54.856;26.318;2023-05-03T17:51:13;1032.2;;;11.4;38
45789;BME280;31492;54.856;26.318;2023-05-03T17:56:21;1032.3;;;11.1;38.4
45789;BME280;31492;54.856;26.318;2023-05-03T18:01:13;1032.3;;;10.9;38.5
45789;BME280;31492;54.856;26.318;2023-05-03T18:06:14;1032.4;;;10.7;39
45789;BME280;31492;54.856;26.318;2023-05-03T18:11:21;1032.4;;;10.5;39.5
45789;BME280;31492;54.856;26.318;2023-05-03T18:16:27;1032.4;;;10.3;40.6
45789;BME280;31492;54.856;26.318;2023-05-03T18:21:19;1032.5;;;10.1;41.6
45789;BME280;31492;54.856;26.318;2023-05-03T18:26:19;1032.5;;;9.9;42.3
45789;BME280;31492;54.856;26.318;2023-05-03T18:31:13;1032.5;;;9.8;42.7
45789;BME280;31492;54.856;26.318;2023-05-03T18:36:13;1032.6;;;9.6;43.1
45789;BME280;31492;54.856;26.318;2023-05-03T18:41:35;1032.6;;;9.4;43.9
45789;BME280;31492;54.856;26.318;2023-05-03T18:46:25;1032.6;;;9.3;44.2
45789;BME280;31492;54.856;26.318;2023-05-03T18:51:19;1032.6;;;9.1;45.2
45789;BME280;31492;54.856;26.318;2023-05-03T18:56:27;1032.6;;;8.9;46.3
45789;BME280;31492;54.856;26.318;2023-05-03T19:01:13;1032.6;;;8.7;47.1
45789;BME280;31492;54.856;26.318;2023-05-03T19:06:21;1032.6;;;8.5;47.9
45789;BME280;31492;54.856;26.318;2023-05-03T19:11:43;1032.7;;;8.3;48.3
45789;BME280;31492;54.856;26.318;2023-05-03T19:16:25;1032.7;;;8.1;48.6
45789;BME280;31492;54.856;26.318;2023-05-03T19:21:13;1032.7;;;8;48.8
45789;BME280;31492;54.856;26.318;2023-05-03T19:26:13;1032.7;;;7.9;49.1
45789;BME280;31492;54.856;26.318;2023-05-03T19:31:13;1032.7;;;7.8;49.3
45789;BME280;31492;54.856;26.318;2023-05-03T19:36:21;1032.8;;;7.7;49.7
45789;BME280;31492;54.856;26.318;2023-05-03T19:41:33;1032.8;;;7.6;49.9
45789;BME280;31492;54.856;26.318;2023-05-03T19:46:13;1032.8;;;7.5;50.3
45789;BME280;31492;54.856;26.318;2023-05-03T19:51:27;1032.8;;;7.5;50.1
45789;BME280;31492;54.856;26.318;2023-05-03T19:56:25;1032.8;;;7.5;49.7
45789;BME280;31492;54.856;26.318;2023-05-03T20:01:13;1032.9;;;7.5;49.6
45789;BME280;31492;54.856;26.318;2023-05-03T20:06:51;1032.9;;;7.4;49.8
45789;BME280;31492;54.856;26.318;2023-05-03T20:11:33;1032.9;;;7.2;50.7
45789;BME280;31492;54.856;26.318;2023-05-03T20:16:13;1032.9;;;7.1;51.2
45789;BME280;31492;54.856;26.318;2023-05-03T20:21:13;1032.9;;;7;51.2
45789;BME280;31492;54.856;26.318;2023-05-03T20:26:25;1032.9;;;6.8;51.8
45789;BME280;31492;54.856;26.318;2023-05-03T20:31:13;1032.9;;;6.7;52
45789;BME280;31492;54.856;26.318;2023-05-03T20:36:13;1032.9;;;6.8;51.6
45789;BME280;31492;54.856;26.318;2023-05-03T20:41:25;1032.9;;;6.8;51.8
45789;BME280;31492;54.856;26.318;2023-05-03T20:46:19;1032.9;;;6.7;52
45789;BME280;31492;54.856;26.318;2023-05-03T20:51:33;1033;;;6.6;52.4
45789;BME280;31492;54.856;26.318;2023-05-03T20:56:13;1033;;;6.4;53.3
45789;BME280;31492;54.856;26.318;2023-05-03T21:01:21;1033;;;6.3;53.7
45789;BME280;31492;54.856;26.318;2023-05-03T21:06:27;1033;;;6.2;54.1
45789;BME280;31492;54.856;26.318;2023-05-03T21:11:33;1033;;;6;54.6
45789;BME280;31492;54.856;26.318;2023-05-03T21:16:21;1032.9;;;5.9;55.5
45789;BME280;31492;54.856;26.318;2023-05-03T21:21:27;1033;;;5.8;55.6
45789;BME280;31492;54.856;26.318;2023-05-03T21:26:19;1033;;;5.8;56.3
45789;BME280;31492;54.856;26.318;2023-05-03T21:31:13;1033;;;5.8;56.7
45789;BME280;31492;54.856;26.318;2023-05-03T21:36:13;1033;;;5.8;56.6
45789;BME280;31492;54.856;26.318;2023-05-03T21:41:29;1033;;;5.8;56.6
45789;BME280;31492;54.856;26.318;2023-05-03T21:46:21;1033;;;5.7;57.2
45789;BME280;31492;54.856;26.318;2023-05-03T21:51:16;1033;;;5.7;57.4
45789;BME280;31492;54.856;26.318;2023-05-03T21:56:21;1033;;;5.7;57.8
45789;BME280;31492;54.856;26.318;2023-05-03T22:01:35;1033;;;5.7;58.2
45789;BME280;31492;54.856;26.318;2023-05-03T22:06:39;1033;;;5.7;58.3
45789;BME280;31492;54.856;26.318;2023-05-03T22:11:13;1033;;;5.8;58.3
45789;BME280;31492;54.856;26.318;2023-05-03T22:16:13;1033;;;5.9;58.2
45789;BME280;31492;54.856;26.318;2023-05-03T22:21:23;1032.9;;;5.9;58.3
45789;BME280;31492;54.856;26.318;2023-05-03T22:26:33;1033;;;6;58.3
45789;BME280;31492;54.856;26.318;2023-05-03T22:31:33;1033;;;6;58.3
45789;BME280;31492;54.856;26.318;2023-05-03T22:36:13;1033;;;6;58.4
45789;BME280;31492;54.856;26.318;2023-05-03T22:41:35;1033;;;6;58.3
45789;BME280;31492;54.856;26.318;2023-05-03T22:46:57;1033;;;6;58.1
45789;BME280;31492;54.856;26.318;2023-05-03T22:51:19;1033;;;6.2;58
45789;BME280;31492;54.856;26.318;2023-05-03T22:56:13;1033;;;6.3;58
45789;BME280;31492;54.856;26.318;2023-05-03T23:01:13;1033;;;6.3;57.9
45789;BME280;31492;54.856;26.318;2023-05-03T23:06:23;1033;;;6.4;58.4
45789;BME280;31492;54.856;26.318;2023-05-03T23:11:33;1033;;;6.3;58.3
45789;BME280;31492;54.856;26.318;2023-05-03T23:16:33;1032.9;;;6.4;58.5
45789;BME280;31492;54.856;26.318;2023-05-03T23:21:13;1032.9;;;6.4;58.6
45789;BME280;31492;54.856;26.318;2023-05-03T23:26:13;1033;;;6.4;58.4
45789;BME280;31492;54.856;26.318;2023-05-03T23:31:41;1033;;;6.5;58.4
45789;BME280;31492;54.856;26.318;2023-05-03T23:36:19;1032.9;;;6.5;58.5
45789;BME280;31492;54.856;26.318;2023-05-03T23:41:13;1032.9;;;6.5;59.1
45789;BME280;31492;54.856;26.318;2023-05-03T23:46:31;1032.9;;;6.5;58.9
45789;BME280;31492;54.856;26.318;2023-05-03T23:51:13;1032.9;;;6.6;58.8
45789;BME280;31492;54.856;26.318;2023-05-03T23:56:35;1032.9;;;6.5;58.8
